createdAt,value
2022-12-01T00:00:09.505Z,98364.50
2022-12-01T00:02:36.048Z,98362.59
2022-12-01T00:05:02.796Z,98357.81
2022-12-01T00:07:29.341Z,98366.88
2022-12-01T00:10:14.538Z,98362.94
2022-12-01T00:12:43.505Z,98352.81
2022-12-01T00:15:12.802Z,98362.34
2022-12-01T00:17:39.202Z,98375.69
2022-12-01T00:20:07.098Z,98379.00
2022-12-01T00:22:33.507Z,98364.00
2022-12-01T00:25:00.191Z,98378.31
2022-12-01T00:27:26.824Z,98375.69
2022-12-01T00:29:53.193Z,98377.34
2022-12-01T00:32:19.724Z,98369.13
2022-12-01T00:34:46.167Z,98395.09
2022-12-01T00:37:12.538Z,98398.91
2022-12-01T00:39:38.939Z,98394.50
2022-12-01T00:42:08.688Z,98406.91
2022-12-01T00:44:39.398Z,98409.63
2022-12-01T00:47:05.868Z,98429.53
2022-12-01T00:49:32.498Z,98419.72
2022-12-01T00:51:59.225Z,98435.00
2022-12-01T00:54:26.376Z,98439.28
2022-12-01T00:56:52.802Z,98440.47
2022-12-01T00:59:19.194Z,98433.56
2022-12-01T01:01:46.650Z,98428.06
2022-12-01T01:04:13.167Z,98440.69
2022-12-01T01:06:39.638Z,98434.28
2022-12-01T01:09:06.058Z,98449.47
2022-12-01T01:11:32.464Z,98449.00
2022-12-01T01:13:59.513Z,98439.19
2022-12-01T01:16:26.714Z,98455.63
2022-12-01T01:18:53.459Z,98451.56
2022-12-01T01:21:21.562Z,98446.94
2022-12-01T01:23:48.982Z,98433.69
2022-12-01T01:26:21.309Z,98433.59
2022-12-01T01:28:48.924Z,98433.47
2022-12-01T01:31:20.437Z,98440.75
2022-12-01T01:33:47.785Z,98432.59
2022-12-01T01:36:15.796Z,98456.03
2022-12-01T01:38:42.394Z,98448.94
2022-12-01T01:41:09.696Z,98457.47
2022-12-01T01:43:56.873Z,98447.00
2022-12-01T01:46:28.832Z,98456.75
2022-12-01T01:49:00.270Z,98445.09
2022-12-01T01:51:33.300Z,98453.06
2022-12-01T01:54:04.533Z,98467.72
2022-12-01T01:56:31.379Z,98460.03
2022-12-01T01:58:59.188Z,98463.34
2022-12-01T02:01:25.622Z,98474.97
2022-12-01T02:03:54.614Z,98502.66
2022-12-01T02:06:24.028Z,98493.69
2022-12-01T02:08:50.743Z,98492.22
2022-12-01T02:11:48.348Z,98492.75
2022-12-01T02:14:25.038Z,98510.88
2022-12-01T02:17:21.618Z,98510.75
2022-12-01T02:20:18.739Z,98491.56
2022-12-01T02:23:03.613Z,98525.44
2022-12-01T02:25:50.439Z,98519.44
2022-12-01T02:28:38.114Z,98517.25
2022-12-01T02:31:23.583Z,98509.22
2022-12-01T02:33:58.645Z,98545.34
2022-12-01T02:36:33.592Z,98536.53
2022-12-01T02:39:06.808Z,98529.09
2022-12-01T02:41:39.231Z,98532.25
2022-12-01T02:44:31.809Z,98544.53
2022-12-01T02:47:18.513Z,98551.63
2022-12-01T02:49:50.544Z,98554.34
2022-12-01T02:52:18.914Z,98559.19
2022-12-01T02:54:47.442Z,98558.34
2022-12-01T02:57:15.366Z,98558.22
2022-12-01T02:59:47.755Z,98556.66
2022-12-01T03:02:42.066Z,98552.47
2022-12-01T03:05:21.897Z,98548.00
2022-12-01T03:08:00.609Z,98559.59
2022-12-01T03:10:53.766Z,98556.13
2022-12-01T03:13:38.243Z,98558.88
2022-12-01T03:16:20.439Z,98559.72
2022-12-01T03:18:56.315Z,98554.97
2022-12-01T03:21:42.408Z,98564.38
2022-12-01T03:24:16.015Z,98562.94
2022-12-01T03:26:45.987Z,98571.28
2022-12-01T03:29:20.445Z,98558.63
2022-12-01T03:31:55.160Z,98566.91
2022-12-01T03:34:30.085Z,98565.22
2022-12-01T03:37:10.567Z,98554.78
2022-12-01T03:39:40.138Z,98562.09
2022-12-01T03:42:16.673Z,98554.97
2022-12-01T03:44:53.771Z,98559.59
2022-12-01T03:47:26.541Z,98549.53
2022-12-01T03:49:54.432Z,98557.59
2022-12-01T03:52:48.439Z,98564.63
2022-12-01T03:55:24.108Z,98559.78
2022-12-01T03:57:56.174Z,98560.94
2022-12-01T04:00:23.539Z,98556.25
2022-12-01T04:02:57.857Z,98541.59
2022-12-01T04:05:25.596Z,98548.28
2022-12-01T04:07:52.835Z,98567.31
2022-12-01T04:10:19.307Z,98560.31
2022-12-01T04:12:45.787Z,98565.94
2022-12-01T04:15:14.461Z,98549.16
2022-12-01T04:17:45.102Z,98567.56
2022-12-01T04:20:14.062Z,98568.38
2022-12-01T04:22:40.813Z,98578.94
2022-12-01T04:25:07.861Z,98574.88
2022-12-01T04:27:34.728Z,98552.16
2022-12-01T04:30:01.183Z,98565.22
2022-12-01T04:32:27.544Z,98579.78
2022-12-01T04:34:53.957Z,98573.59
2022-12-01T04:37:20.667Z,98574.75
2022-12-01T04:39:47.506Z,98560.53
2022-12-01T04:42:14.282Z,98555.69
2022-12-01T04:44:40.664Z,98548.91
2022-12-01T04:47:07.214Z,98569.41
2022-12-01T04:49:35.197Z,98577.44
2022-12-01T04:52:01.637Z,98568.88
2022-12-01T04:54:28.529Z,98572.06
2022-12-01T04:56:54.897Z,98564.78
2022-12-01T04:59:21.439Z,98568.34
2022-12-01T05:01:48.247Z,98569.41
2022-12-01T05:04:15.526Z,98559.97
2022-12-01T05:06:42.503Z,98569.38
2022-12-01T05:09:17.083Z,98552.41
2022-12-01T05:11:43.846Z,98561.03
2022-12-01T05:14:10.539Z,98562.88
2022-12-01T05:16:37.904Z,98546.91
2022-12-01T05:19:24.628Z,98554.97
2022-12-01T05:21:51.785Z,98570.41
2022-12-01T05:24:19.499Z,98560.59
2022-12-01T05:26:46.169Z,98554.25
2022-12-01T05:29:13.376Z,98539.19
2022-12-01T05:31:40.379Z,98571.38
2022-12-01T05:34:07.724Z,98574.16
2022-12-01T05:36:34.358Z,98574.56
2022-12-01T05:39:00.742Z,98572.69
2022-12-01T05:41:27.156Z,98565.97
2022-12-01T05:43:54.022Z,98574.78
2022-12-01T05:46:20.467Z,98576.78
2022-12-01T05:48:47.318Z,98559.94
2022-12-01T05:51:15.761Z,98565.25
2022-12-01T05:53:43.153Z,98555.03
2022-12-01T05:56:09.701Z,98562.25
2022-12-01T05:58:36.602Z,98562.03
2022-12-01T06:01:03.664Z,98570.81
2022-12-01T06:03:30.055Z,98476.72
2022-12-01T06:05:56.515Z,98567.06
2022-12-01T06:08:23.055Z,98567.06
2022-12-01T06:10:49.526Z,98577.94
2022-12-01T06:13:15.924Z,98575.84
2022-12-01T06:15:42.328Z,98570.00
2022-12-01T06:18:09.366Z,98578.59
2022-12-01T06:20:35.901Z,98577.75
2022-12-01T06:23:02.327Z,98584.00
2022-12-01T06:25:28.734Z,98583.38
2022-12-01T06:27:58.930Z,98543.06
2022-12-01T06:30:26.347Z,98543.91
2022-12-01T06:32:52.848Z,98561.88
2022-12-01T06:35:19.638Z,98566.72
2022-12-01T06:37:46.262Z,98578.81
2022-12-01T06:40:12.953Z,98576.13
2022-12-01T06:42:39.376Z,98584.88
2022-12-01T06:45:06.207Z,98585.28
2022-12-01T06:47:32.619Z,98586.66
2022-12-01T06:49:59.054Z,98603.88
2022-12-01T06:52:27.443Z,98610.88
2022-12-01T06:54:53.906Z,98610.34
2022-12-01T06:57:20.705Z,98601.00
2022-12-01T06:59:48.211Z,98573.25
2022-12-01T07:02:16.521Z,98612.94
2022-12-01T07:04:42.980Z,98618.91
2022-12-01T07:07:09.758Z,98609.13
2022-12-01T07:09:36.212Z,98613.06
2022-12-01T07:12:02.692Z,98595.88
2022-12-01T07:14:30.785Z,98606.34
2022-12-01T07:16:58.790Z,98623.53
2022-12-01T07:19:25.282Z,98614.41
2022-12-01T07:21:51.644Z,98609.84
2022-12-01T07:24:18.037Z,98621.09
2022-12-01T07:26:44.501Z,98616.09
2022-12-01T07:29:11.372Z,98592.44
2022-12-01T07:31:38.554Z,98617.78
2022-12-01T07:34:05.874Z,98621.09
2022-12-01T07:36:32.570Z,98601.00
2022-12-01T07:38:59.028Z,98624.59
2022-12-01T07:41:25.482Z,98614.97
2022-12-01T07:43:52.095Z,98615.69
2022-12-01T07:46:24.339Z,98615.19
2022-12-01T07:48:52.073Z,98629.72
2022-12-01T07:51:19.476Z,98597.56
2022-12-01T07:53:47.664Z,98620.28
2022-12-01T07:56:14.057Z,98613.16
2022-12-01T07:58:42.189Z,98625.19
2022-12-01T08:01:17.959Z,98611.53
2022-12-01T08:03:44.564Z,98610.56
2022-12-01T08:06:11.964Z,98603.91
2022-12-01T08:08:40.636Z,98586.84
2022-12-01T08:11:10.792Z,98614.50
2022-12-01T08:13:37.884Z,98615.16
2022-12-01T08:16:10.486Z,98599.94
2022-12-01T08:18:38.901Z,98609.72
2022-12-01T08:21:06.756Z,98608.44
2022-12-01T08:23:33.221Z,98594.50
2022-12-01T08:26:04.680Z,98603.03
2022-12-01T08:28:31.474Z,98607.91
2022-12-01T08:30:58.055Z,98587.28
2022-12-01T08:33:24.490Z,98595.56
2022-12-01T08:35:50.927Z,98594.19
2022-12-01T08:38:17.449Z,98596.28
2022-12-01T08:40:44.271Z,98588.56
2022-12-01T08:43:23.185Z,98566.72
2022-12-01T08:46:01.468Z,98581.78
2022-12-01T08:48:29.986Z,98573.56
2022-12-01T08:51:02.458Z,98569.59
2022-12-01T08:53:29.407Z,98555.19
2022-12-01T08:55:58.575Z,98553.81
2022-12-01T08:58:24.980Z,98557.47
2022-12-01T09:00:51.381Z,98560.19
2022-12-01T09:03:17.825Z,98562.66
2022-12-01T09:05:44.233Z,98544.63
2022-12-01T09:08:29.331Z,98537.53
2022-12-01T09:10:55.786Z,98491.75
2022-12-01T09:13:22.179Z,98547.00
2022-12-01T09:16:00.030Z,98551.16
2022-12-01T09:18:27.057Z,98547.19
2022-12-01T09:20:54.917Z,98543.34
2022-12-01T09:23:22.232Z,98542.63
2022-12-01T09:25:49.904Z,98541.59
2022-12-01T09:28:17.941Z,98546.16
2022-12-01T09:30:45.558Z,98537.59
2022-12-01T09:33:12.728Z,98517.75
2022-12-01T09:35:39.461Z,98518.38
2022-12-01T09:38:05.894Z,98524.47
2022-12-01T09:40:39.009Z,98528.66
2022-12-01T09:43:14.960Z,98504.28
2022-12-01T09:45:44.257Z,98510.03
2022-12-01T09:48:25.541Z,98511.09
2022-12-01T09:50:52.533Z,98525.41
2022-12-01T09:53:23.959Z,98519.44
2022-12-01T09:55:50.761Z,98510.47
2022-12-01T09:58:26.293Z,98519.69
2022-12-01T10:00:54.292Z,98518.41
2022-12-01T10:03:32.978Z,98528.41
2022-12-01T10:06:28.519Z,98512.84
2022-12-01T10:09:06.850Z,98505.66
2022-12-01T10:11:40.969Z,98499.78
2022-12-01T10:14:19.475Z,98502.59
2022-12-01T10:17:05.527Z,98493.13
2022-12-01T10:20:03.470Z,98496.75
2022-12-01T10:23:04.732Z,98489.13
2022-12-01T10:25:56.945Z,98468.56
2022-12-01T10:28:53.923Z,98454.66
2022-12-01T10:31:34.598Z,98455.50
2022-12-01T10:34:27.222Z,98447.38
2022-12-01T10:36:54.065Z,98430.84
2022-12-01T10:39:30.494Z,98408.28
2022-12-01T10:42:06.560Z,98432.09
2022-12-01T10:44:34.447Z,98386.56
2022-12-01T10:47:00.859Z,98413.50
2022-12-01T10:49:41.478Z,98425.09
2022-12-01T10:52:32.782Z,98410.81
2022-12-01T10:55:00.324Z,98424.75
2022-12-01T10:57:30.081Z,98441.94
2022-12-01T11:00:04.490Z,98462.38
2022-12-01T11:02:32.257Z,98449.13
2022-12-01T11:05:22.781Z,98410.34
2022-12-01T11:07:50.082Z,98437.31
2022-12-01T11:10:21.397Z,98448.91
2022-12-01T11:13:02.295Z,98446.91
2022-12-01T11:15:37.451Z,98449.50
2022-12-01T11:18:06.444Z,98462.47
2022-12-01T11:20:36.299Z,98470.66
2022-12-01T11:23:26.339Z,98470.34
2022-12-01T11:26:07.844Z,98465.97
2022-12-01T11:28:36.002Z,98476.59
2022-12-01T11:31:06.241Z,98460.00
2022-12-01T11:33:43.917Z,98458.00
2022-12-01T11:36:18.331Z,98451.94
2022-12-01T11:38:44.924Z,98473.66
2022-12-01T11:41:29.643Z,98483.28
2022-12-01T11:44:01.546Z,98501.75
2022-12-01T11:46:32.527Z,98479.91
2022-12-01T11:49:00.102Z,98486.22
2022-12-01T11:51:31.893Z,98486.59
2022-12-01T11:54:06.216Z,98507.31
2022-12-01T11:56:32.585Z,98503.31
2022-12-01T11:59:05.523Z,98492.19
2022-12-01T12:01:56.988Z,98516.25
2022-12-01T12:04:35.149Z,98489.63
2022-12-01T12:07:23.104Z,98497.34
2022-12-01T12:10:01.717Z,98502.88
2022-12-01T12:12:46.571Z,98468.75
2022-12-01T12:15:28.370Z,98496.72
2022-12-01T12:18:26.294Z,98491.81
2022-12-01T12:21:13.648Z,98490.97
2022-12-01T12:23:57.327Z,98485.94
2022-12-01T12:26:42.555Z,98504.34
2022-12-01T12:29:43.326Z,98476.81
2022-12-01T12:32:28.531Z,98502.63
2022-12-01T12:35:03.271Z,98501.59
2022-12-01T12:37:43.012Z,98485.22
2022-12-01T12:40:35.661Z,98493.44
2022-12-01T12:43:18.710Z,98487.19
2022-12-01T12:46:08.574Z,98482.22
2022-12-01T12:48:38.739Z,98489.09
2022-12-01T12:51:22.662Z,98470.16
2022-12-01T12:54:18.930Z,98474.16
2022-12-01T12:56:48.467Z,98481.75
2022-12-01T12:59:24.882Z,98479.47
2022-12-01T13:02:15.664Z,98473.19
2022-12-01T13:05:06.359Z,98467.13
2022-12-01T13:07:56.258Z,98456.69
2022-12-01T13:10:34.318Z,98446.47
2022-12-01T13:13:13.436Z,98447.69
2022-12-01T13:15:42.287Z,98434.94
2022-12-01T13:18:25.203Z,98425.41
2022-12-01T13:20:54.146Z,98425.63
2022-12-01T13:23:21.973Z,98430.41
2022-12-01T13:25:56.263Z,98429.38
2022-12-01T13:28:31.189Z,98434.13
2022-12-01T13:31:00.651Z,98433.53
2022-12-01T13:33:27.739Z,98440.53
2022-12-01T13:36:22.554Z,98440.59
2022-12-01T13:38:57.183Z,98441.25
2022-12-01T13:41:31.858Z,98436.66
2022-12-01T13:44:26.046Z,98433.34
2022-12-01T13:46:56.938Z,98423.50
2022-12-01T13:49:42.546Z,98411.94
2022-12-01T13:52:20.983Z,98421.41
2022-12-01T13:55:09.424Z,98419.31
2022-12-01T13:58:11.163Z,98419.50
2022-12-01T14:00:37.748Z,98403.31
2022-12-01T14:03:13.253Z,98355.41
2022-12-01T14:05:39.673Z,98405.22
2022-12-01T14:08:23.239Z,98393.88
2022-12-01T14:11:26.479Z,98396.56
2022-12-01T14:14:22.734Z,98394.97
2022-12-01T14:16:58.371Z,98395.28
2022-12-01T14:19:34.339Z,98390.63
2022-12-01T14:22:02.358Z,98384.00
2022-12-01T14:24:36.608Z,98390.00
2022-12-01T14:27:07.892Z,98365.47
2022-12-01T14:29:40.070Z,98378.25
2022-12-01T14:32:09.176Z,98370.53
2022-12-01T14:34:37.367Z,98355.00
2022-12-01T14:37:09.760Z,98360.59
2022-12-01T14:39:40.759Z,98358.78
2022-12-01T14:42:35.135Z,98337.91
2022-12-01T14:45:03.852Z,98359.56
2022-12-01T14:47:41.476Z,98323.91
2022-12-01T14:50:36.046Z,98357.78
2022-12-01T14:53:24.736Z,98349.97
2022-12-01T14:56:10.827Z,98351.38
2022-12-01T14:58:37.258Z,98356.19
2022-12-01T15:01:13.908Z,98359.56
2022-12-01T15:04:01.575Z,98317.13
2022-12-01T15:06:31.344Z,98335.78
2022-12-01T15:09:34.974Z,98316.97
2022-12-01T15:12:07.179Z,98312.13
2022-12-01T15:14:39.138Z,98281.34
2022-12-01T15:17:08.673Z,98308.53
2022-12-01T15:19:37.890Z,98296.09
2022-12-01T15:22:12.460Z,98285.22
2022-12-01T15:24:39.478Z,98297.13
2022-12-01T15:27:25.341Z,98291.06
2022-12-01T15:29:52.364Z,98290.03
2022-12-01T15:32:21.749Z,98298.78
2022-12-01T15:34:51.347Z,98308.47
2022-12-01T15:37:21.695Z,98314.41
2022-12-01T15:43:18.473Z,98329.00
2022-12-01T15:45:48.914Z,98336.28
2022-12-01T15:48:18.257Z,98355.19
2022-12-01T15:50:58.428Z,98361.84
2022-12-01T15:53:29.202Z,98362.16
2022-12-01T15:55:59.246Z,98381.44
2022-12-01T15:58:30.277Z,98388.22
2022-12-01T16:00:59.682Z,98394.28
2022-12-01T16:03:27.028Z,98385.72
2022-12-01T16:05:53.928Z,98415.88
2022-12-01T16:08:24.177Z,98395.25
2022-12-01T16:11:10.753Z,98407.63
2022-12-01T16:14:00.717Z,98411.03
2022-12-01T16:16:36.082Z,98420.00
2022-12-01T16:19:05.890Z,98352.91
2022-12-01T16:21:42.029Z,98416.00
2022-12-01T16:24:42.870Z,98432.47
2022-12-01T16:27:37.695Z,98425.28
2022-12-01T16:30:08.364Z,98441.75
2022-12-01T16:32:40.779Z,98439.88
2022-12-01T16:35:30.412Z,98445.88
2022-12-01T16:37:58.220Z,98441.22
2022-12-01T16:40:24.853Z,98440.84
2022-12-01T16:42:51.343Z,98433.94
2022-12-01T16:45:19.205Z,98443.25
2022-12-01T16:47:47.963Z,98468.00
2022-12-01T16:50:16.905Z,98451.81
2022-12-01T16:59:05.784Z,98431.53
2022-12-01T17:01:32.404Z,98429.69
2022-12-01T17:04:01.387Z,98435.75
2022-12-01T17:06:31.160Z,98444.28
2022-12-01T17:08:57.695Z,98451.25
2022-12-01T17:11:24.324Z,98452.00
2022-12-01T17:13:50.907Z,98461.56
2022-12-01T17:16:18.880Z,98459.72
2022-12-01T17:18:45.576Z,98476.19
2022-12-01T17:21:12.180Z,98472.41
2022-12-01T17:23:39.002Z,98458.72
2022-12-01T17:26:18.324Z,98478.53
2022-12-01T17:28:46.042Z,98462.25
2022-12-01T17:31:13.317Z,98471.28
2022-12-01T17:33:40.891Z,98476.78
2022-12-01T17:36:11.785Z,98476.59
2022-12-01T17:38:41.544Z,98485.69
2022-12-01T17:41:10.727Z,98469.63
2022-12-01T17:43:38.690Z,98472.47
2022-12-01T17:46:06.850Z,98483.38
2022-12-01T17:48:38.482Z,98480.22
2022-12-01T17:51:05.489Z,98460.59
2022-12-01T17:53:32.560Z,98478.06
2022-12-01T17:56:00.026Z,98465.44
2022-12-01T17:58:26.859Z,98500.03
2022-12-01T18:00:53.912Z,98504.88
2022-12-01T18:03:21.059Z,98496.31
2022-12-01T18:05:58.212Z,98487.00
2022-12-01T18:08:26.599Z,98485.69
2022-12-01T18:10:53.844Z,98485.13
2022-12-01T18:13:21.517Z,98498.00
2022-12-01T18:15:48.632Z,98503.19
2022-12-01T18:18:15.115Z,98497.81
2022-12-01T18:20:43.340Z,98501.72
2022-12-01T18:23:11.467Z,98488.34
2022-12-01T18:25:39.489Z,98511.13
2022-12-01T18:28:06.898Z,98502.53
2022-12-01T18:30:34.032Z,98485.16
2022-12-01T18:33:01.429Z,98501.72
2022-12-01T18:35:31.927Z,98506.56
2022-12-01T18:37:58.881Z,98511.31
2022-12-01T18:40:25.266Z,98509.72
2022-12-01T18:42:51.660Z,98504.41
2022-12-01T18:45:21.228Z,98497.81
2022-12-01T18:47:48.209Z,98500.03
2022-12-01T18:50:14.928Z,98497.25
2022-12-01T18:52:41.343Z,98478.00
2022-12-01T18:55:09.087Z,98514.16
2022-12-01T18:57:35.614Z,98497.63
2022-12-01T19:00:04.611Z,98517.34
2022-12-01T19:02:31.095Z,98522.34
2022-12-01T19:04:57.527Z,98522.19
2022-12-01T19:07:29.371Z,98516.78
2022-12-01T19:09:56.351Z,98506.72
2022-12-01T19:12:22.817Z,98521.63
2022-12-01T19:14:49.483Z,98542.00
2022-12-01T19:17:16.687Z,98530.53
2022-12-01T19:19:43.082Z,98522.47
2022-12-01T19:22:09.492Z,98510.66
2022-12-01T19:24:35.909Z,98536.53
2022-12-01T19:27:02.302Z,98533.38
2022-12-01T19:29:28.798Z,98515.03
2022-12-01T19:31:55.425Z,98521.63
2022-12-01T19:34:22.021Z,98532.72
2022-12-01T19:36:49.792Z,98535.00
2022-12-01T19:39:16.243Z,98539.50
2022-12-01T19:41:42.642Z,98548.63
2022-12-01T19:44:09.651Z,98542.28
2022-12-01T19:46:36.060Z,98546.94
2022-12-01T19:49:03.269Z,98544.53
2022-12-01T19:51:35.441Z,98559.78
2022-12-01T19:54:04.123Z,98555.97
2022-12-01T19:56:31.474Z,98561.44
2022-12-01T19:58:59.565Z,98574.09
2022-12-01T20:01:27.041Z,98569.25
2022-12-01T20:03:54.452Z,98583.41
2022-12-01T20:06:27.805Z,98572.81
2022-12-01T20:08:57.147Z,98575.50
2022-12-01T20:11:25.313Z,98575.78
2022-12-01T20:13:52.363Z,98568.16
2022-12-01T20:16:21.868Z,98567.50
2022-12-01T20:18:49.716Z,98568.53
2022-12-01T20:21:19.396Z,98571.88
2022-12-01T20:23:59.355Z,98561.19
2022-12-01T20:26:31.617Z,98554.66
2022-12-01T20:29:07.585Z,98559.59
2022-12-01T20:31:34.886Z,98551.38
2022-12-01T20:34:04.420Z,98542.84
2022-12-01T20:36:30.932Z,98539.28
2022-12-01T20:38:57.487Z,98530.00
2022-12-01T20:41:23.970Z,98519.59
2022-12-01T20:43:50.406Z,98492.63
2022-12-01T20:46:17.155Z,98502.75
2022-12-01T20:48:43.660Z,98483.47
2022-12-01T20:51:13.060Z,98485.63
2022-12-01T20:53:39.828Z,98486.75
2022-12-01T20:56:09.649Z,98481.63
2022-12-01T20:58:38.075Z,98456.97
2022-12-01T21:01:13.402Z,98463.00
2022-12-01T21:03:42.074Z,98448.13
2022-12-01T21:06:09.907Z,98437.16
2022-12-01T21:08:38.486Z,98434.72
2022-12-01T21:11:07.944Z,98433.44
2022-12-01T21:13:43.831Z,98437.25
2022-12-01T21:16:14.042Z,98438.84
2022-12-01T21:18:55.717Z,98422.19
2022-12-01T21:21:25.299Z,98431.94
2022-12-01T21:24:18.645Z,98411.94
2022-12-01T21:26:50.489Z,98409.91
2022-12-01T21:29:20.461Z,98401.34
2022-12-01T21:31:50.609Z,98427.66
2022-12-01T21:34:25.781Z,98439.38
2022-12-01T21:36:56.509Z,98436.97
2022-12-01T21:39:24.680Z,98420.31
2022-12-01T21:41:54.811Z,98444.59
2022-12-01T21:44:23.741Z,98455.94
2022-12-01T21:46:53.643Z,98448.13
2022-12-01T21:49:22.225Z,98454.53
2022-12-01T21:51:52.014Z,98457.81
2022-12-01T21:54:22.889Z,98460.59
2022-12-01T21:56:52.125Z,98466.47
2022-12-01T21:59:23.788Z,98468.31
2022-12-01T22:01:57.344Z,98465.25
2022-12-01T22:04:25.477Z,98472.41
2022-12-01T22:06:53.825Z,98471.19
2022-12-01T22:09:35.855Z,98476.78
2022-12-01T22:12:27.662Z,98477.13
2022-12-01T22:15:00.263Z,98475.47
2022-12-01T22:17:27.900Z,98493.63
2022-12-01T22:20:00.787Z,98480.69
2022-12-01T22:22:29.427Z,98492.25
2022-12-01T22:25:22.091Z,98497.16
2022-12-01T22:27:48.505Z,98489.91
2022-12-01T22:30:21.116Z,98484.59
2022-12-01T22:32:52.376Z,98490.63
2022-12-01T22:35:22.119Z,98507.13
2022-12-01T22:37:51.773Z,98499.97
2022-12-01T22:40:43.212Z,98487.00
2022-12-01T22:43:15.510Z,98500.50
2022-12-01T22:45:47.403Z,98506.56
2022-12-01T22:48:37.148Z,98501.34
2022-12-01T22:51:12.641Z,98500.44
2022-12-01T22:53:39.615Z,98490.00
2022-12-01T22:56:24.634Z,98504.06
2022-12-01T22:58:51.804Z,98499.56
2022-12-01T23:01:40.855Z,98509.13
2022-12-01T23:04:42.121Z,98501.63
2022-12-01T23:07:27.614Z,98499.09
2022-12-01T23:09:57.411Z,98497.59
2022-12-01T23:12:29.985Z,98488.31
2022-12-01T23:15:07.001Z,98494.81
2022-12-01T23:17:35.608Z,98501.16
2022-12-01T23:20:08.231Z,98504.69
2022-12-01T23:22:34.653Z,98515.19
2022-12-01T23:25:09.437Z,98505.34
2022-12-01T23:27:37.507Z,98503.56
2022-12-01T23:30:04.857Z,98494.34
2022-12-01T23:32:31.537Z,98497.88
2022-12-01T23:35:00.318Z,98505.63
2022-12-01T23:37:34.382Z,98498.91
2022-12-01T23:40:02.315Z,98490.53
2022-12-01T23:42:28.758Z,98485.16
2022-12-01T23:44:55.251Z,98488.50
2022-12-01T23:47:27.686Z,98493.50
2022-12-01T23:50:03.456Z,98496.75
2022-12-01T23:52:35.996Z,98483.84
2022-12-01T23:55:11.338Z,98488.88
2022-12-01T23:57:37.755Z,98495.28
